Terminal Aerodrome Forecast
Issued by NWS Binghamton, NY

Home | Current Version | Previous Version | Text Only | Print | Product List | Glossary On
Versions: 1 2 3 4 5 6 7 8 9 10 11 12
745
FTUS41 KBGM 241136
TAFBGM
TAF
KBGM 241136Z 2412/2512 18010KT P6SM OVC250
     FM250000 14008KT P6SM -RA OVC050
     FM250500 12008KT P6SM -RA OVC025
     FM250900 10008KT 5SM -RA BR OVC008=

USA.gov is the U.S. government's official web portal to all federal, state and local government web resources and services.